Terminal Aerodrome Forecast
Issued by NWS

Current Version | Previous Version | Text Only | Print | Product List | Glossary On
Versions: 1 2 3 4 5 6 7 8 9 10 11 12 13 14 15 16 17 18 19 20
000
FTUS42 KTAE 260538
TAFDHN
TAF
KDHN 260538Z 2606/2706 11005KT P6SM FEW004 BKN250
     FM261000 12006KT 4SM BR BKN015
     FM261500 15009KT P6SM VCTS SCT030CB BKN050
      TEMPO 2617/2621 VRB15G25KT 3SM TSRA BKN025CB
     FM262100 15007KT 3SM TSRA SCT035CB BKN070=

USA.gov is the U.S. government's official web portal to all federal, state and local government web resources and services.